createdAt,value
2018-04-14T00:02:13.929Z,100903.84
2018-04-14T00:04:43.077Z,100901.55
2018-04-14T00:07:11.466Z,100902.22
2018-04-14T00:09:39.862Z,100899.41
2018-04-14T00:12:09.017Z,100899.25
2018-04-14T00:14:38.158Z,100900.77
2018-04-14T00:17:06.536Z,100901.55
2018-04-14T00:19:34.945Z,100904.41
2018-04-14T00:22:03.357Z,100911.26
2018-04-14T00:24:32.541Z,100915.59
2018-04-14T00:27:00.972Z,100918.89
2018-04-14T00:29:29.452Z,100923.17
2018-04-14T00:31:57.835Z,100914.11
2018-04-14T00:34:26.223Z,100917.91
2018-04-14T00:36:54.648Z,100922.55
2018-04-14T00:39:23.021Z,100927.64
2018-04-14T00:41:51.473Z,100923.64
2018-04-14T00:44:19.905Z,100923.56
2018-04-14T00:46:48.347Z,100929.98
2018-04-14T00:49:16.734Z,100931.29
2018-04-14T00:51:45.122Z,100930.73
2018-04-14T00:54:13.521Z,100931.31
2018-04-14T00:56:41.954Z,100929.02
2018-04-14T00:59:10.331Z,100923.64
2018-04-14T01:01:39.528Z,100927.89
2018-04-14T01:04:07.918Z,100927.95
2018-04-14T01:06:37.074Z,100931.37
2018-04-14T01:09:06.225Z,100929.02
2018-04-14T01:11:35.446Z,100931.98
2018-04-14T01:14:03.885Z,100934.70
2018-04-14T01:16:32.273Z,100931.98
2018-04-14T01:19:00.670Z,100939.23
2018-04-14T01:21:29.858Z,100934.00
2018-04-14T01:23:58.270Z,100933.33
2018-04-14T01:26:26.693Z,100934.86
2018-04-14T01:28:55.070Z,100933.42
2018-04-14T01:31:23.489Z,100927.16
2018-04-14T01:33:53.514Z,100928.80
2018-04-14T01:36:21.939Z,100935.03
2018-04-14T01:38:50.347Z,100934.05
2018-04-14T01:41:18.730Z,100934.38
2018-04-14T01:43:47.132Z,100934.67
2018-04-14T01:46:15.530Z,100940.28
2018-04-14T01:48:43.937Z,100939.63
2018-04-14T01:51:12.319Z,100943.81
2018-04-14T01:53:41.482Z,100947.62
2018-04-14T01:56:09.866Z,100941.03
2018-04-14T01:58:38.316Z,100943.11
2018-04-14T02:01:06.693Z,100941.73
2018-04-14T02:03:35.071Z,100940.81
2018-04-14T02:06:03.451Z,100945.91
2018-04-14T02:08:31.844Z,100945.64
2018-04-14T02:11:00.217Z,100947.72
2018-04-14T02:13:28.709Z,100947.23
2018-04-14T02:15:57.127Z,100945.37
2018-04-14T02:18:25.577Z,100945.47
2018-04-14T02:20:53.973Z,100951.44
2018-04-14T02:23:22.339Z,100951.13
2018-04-14T02:25:50.724Z,100947.61
2018-04-14T02:28:19.133Z,100946.59
2018-04-14T02:30:47.542Z,100952.72
2018-04-14T02:33:15.946Z,100956.55
2018-04-14T02:35:45.086Z,100959.23
2018-04-14T02:38:13.482Z,100956.08
2018-04-14T02:40:41.934Z,100954.48
2018-04-14T02:43:10.343Z,100959.80
2018-04-14T02:45:38.753Z,100957.41
2018-04-14T02:48:07.174Z,100948.53
2018-04-14T02:50:35.629Z,100951.68
2018-04-14T02:53:04.786Z,100956.98
2018-04-14T02:55:33.172Z,100962.34
2018-04-14T02:58:01.565Z,100958.67
2018-04-14T03:00:30.031Z,100959.48
2018-04-14T03:02:58.417Z,100961.38
2018-04-14T03:05:26.815Z,100963.02
2018-04-14T03:07:55.322Z,100971.44
2018-04-14T03:10:23.764Z,100971.09
2018-04-14T03:12:52.124Z,100975.39
2018-04-14T03:15:20.507Z,100969.91
2018-04-14T03:17:49.709Z,100973.91
2018-04-14T03:20:18.089Z,100973.97
2018-04-14T03:22:46.504Z,100970.64
2018-04-14T03:25:14.894Z,100975.10
2018-04-14T03:27:43.285Z,100979.94
2018-04-14T03:30:11.671Z,100980.13
2018-04-14T03:32:40.047Z,100986.09
2018-04-14T03:35:08.506Z,100994.45
2018-04-14T03:37:36.905Z,100993.80
2018-04-14T03:40:05.278Z,100996.97
2018-04-14T03:42:33.709Z,101005.06
2018-04-14T03:45:02.106Z,101005.59
2018-04-14T03:47:31.266Z,101009.09
2018-04-14T03:49:59.719Z,101008.75
2018-04-14T03:52:28.104Z,101009.22
2018-04-14T03:54:56.501Z,101015.67
2018-04-14T03:57:24.896Z,101018.17
2018-04-14T03:59:53.282Z,101023.16
2018-04-14T04:02:21.663Z,101019.09
2018-04-14T04:04:50.837Z,101017.34
2018-04-14T04:07:19.212Z,101022.77
2018-04-14T04:09:47.630Z,101030.25
2018-04-14T04:12:16.015Z,101034.64
2018-04-14T04:14:44.392Z,101034.66
2018-04-14T04:17:12.779Z,101041.59
2018-04-14T04:19:58.836Z,101041.25
2018-04-14T04:22:44.830Z,101046.77
2018-04-14T04:28:20.788Z,101052.46
2018-04-14T04:30:49.170Z,101046.76
2018-04-14T04:33:17.569Z,101045.06
2018-04-14T04:35:45.948Z,101051.08
2018-04-14T04:38:14.337Z,101049.88
2018-04-14T04:40:43.634Z,101058.38
2018-04-14T04:43:12.020Z,101058.45
2018-04-14T04:45:40.489Z,101061.31
2018-04-14T04:48:08.895Z,101069.10
2018-04-14T04:50:37.301Z,101070.08
2018-04-14T04:53:05.701Z,101073.58
2018-04-14T04:55:34.923Z,101083.25
2018-04-14T04:58:03.313Z,101087.23
2018-04-14T05:00:31.726Z,101090.74
2018-04-14T05:03:00.933Z,101091.14
2018-04-14T05:05:29.314Z,101091.21
2018-04-14T05:07:57.691Z,101093.25
2018-04-14T05:10:26.068Z,101095.34
2018-04-14T05:12:54.457Z,101096.69
2018-04-14T05:15:22.857Z,101101.42
2018-04-14T05:17:51.247Z,101108.09
2018-04-14T05:20:20.388Z,101111.27
2018-04-14T05:22:48.777Z,101114.66
2018-04-14T05:25:17.145Z,101129.19
2018-04-14T05:27:46.285Z,101130.69
2018-04-14T05:30:14.677Z,101125.05
2018-04-14T05:32:43.066Z,101136.88
2018-04-14T05:35:11.498Z,101136.05
2018-04-14T05:37:39.877Z,101130.38
2018-04-14T05:40:09.051Z,101133.31
2018-04-14T05:42:37.428Z,101135.05
2018-04-14T05:45:05.810Z,101114.77
2018-04-14T05:47:34.208Z,101120.77
2018-04-14T05:50:02.591Z,101133.42
2018-04-14T05:52:31.003Z,101137.42
2018-04-14T05:55:00.150Z,101136.15
2018-04-14T05:57:28.545Z,101133.97
2018-04-14T05:59:56.982Z,101138.80
2018-04-14T06:02:25.422Z,101141.27
2018-04-14T06:04:53.866Z,101144.84
2018-04-14T06:07:22.315Z,101148.77
2018-04-14T06:09:51.458Z,101152.17
2018-04-14T06:12:19.858Z,101152.63
2018-04-14T06:14:48.232Z,101151.31
2018-04-14T06:17:16.618Z,101143.84
2018-04-14T06:19:45.090Z,101150.44
2018-04-14T06:22:13.544Z,101154.91
2018-04-14T06:24:41.873Z,101159.17
2018-04-14T06:27:10.263Z,101160.44
2018-04-14T06:29:38.664Z,101160.84
2018-04-14T06:32:07.113Z,101162.33
2018-04-14T06:34:35.635Z,101169.79
2018-04-14T06:37:04.021Z,101172.60
2018-04-14T06:39:32.430Z,101174.61
2018-04-14T06:42:01.578Z,101178.98
2018-04-14T06:44:29.988Z,101188.88
2018-04-14T06:46:58.414Z,101185.13
2018-04-14T06:49:26.817Z,101187.95
2018-04-14T06:51:55.357Z,101192.84
2018-04-14T06:54:24.606Z,101188.45
2018-04-14T06:56:53.067Z,101190.07
2018-04-14T06:59:21.457Z,101193.37
2018-04-14T07:01:49.846Z,101188.70
2018-04-14T07:04:18.245Z,101196.50
2018-04-14T07:06:46.637Z,101198.30
2018-04-14T07:09:15.036Z,101195.70
2018-04-14T07:11:43.449Z,101204.84
2018-04-14T07:14:12.611Z,101208.82
2018-04-14T07:16:41.021Z,101200.79
2018-04-14T07:19:09.446Z,101189.28
2018-04-14T07:21:37.866Z,101206.86
2018-04-14T07:24:06.248Z,101205.77
2018-04-14T07:26:34.654Z,101206.67
2018-04-14T07:29:03.904Z,101210.59
2018-04-14T07:31:32.346Z,101213.75
2018-04-14T07:34:01.549Z,101214.07
2018-04-14T07:36:30.741Z,101218.95
2018-04-14T07:38:59.178Z,101219.66
2018-04-14T07:41:27.601Z,101215.16
2018-04-14T07:43:55.999Z,101226.89
2018-04-14T07:46:25.170Z,101225.75
2018-04-14T07:48:53.594Z,101229.96
2018-04-14T07:51:22.763Z,101228.41
2018-04-14T07:53:51.160Z,101229.86
2018-04-14T07:56:19.579Z,101235.12
2018-04-14T07:58:47.984Z,101239.83
2018-04-14T08:01:16.665Z,101248.13
2018-04-14T08:03:45.090Z,101238.84
2018-04-14T08:06:14.291Z,101241.72
2018-04-14T08:08:42.832Z,101247.15
2018-04-14T08:11:11.219Z,101248.20
2018-04-14T08:13:39.613Z,101248.88
2018-04-14T08:16:08.048Z,101253.68
2018-04-14T08:18:37.339Z,101243.33
2018-04-14T08:21:05.823Z,101252.59
2018-04-14T08:23:34.252Z,101246.64
2018-04-14T08:26:02.633Z,101261.62
2018-04-14T08:28:31.026Z,101264.66
2018-04-14T08:30:59.520Z,101267.70
2018-04-14T08:33:28.087Z,101271.27
2018-04-14T08:35:56.513Z,101266.28
2018-04-14T08:38:24.911Z,101264.33
2018-04-14T08:40:53.365Z,101271.44
2018-04-14T08:43:21.776Z,101272.41
2018-04-14T08:45:50.177Z,101271.72
2018-04-14T08:48:18.572Z,101271.64
2018-04-14T08:50:47.746Z,101265.30
2018-04-14T08:53:16.192Z,101276.53
2018-04-14T08:55:44.577Z,101269.97
2018-04-14T08:58:12.998Z,101271.75
2018-04-14T09:00:41.409Z,101273.05
2018-04-14T09:03:10.591Z,101273.95
2018-04-14T09:05:38.990Z,101273.00
2018-04-14T09:08:08.276Z,101277.86
2018-04-14T09:10:36.701Z,101282.11
2018-04-14T09:13:05.083Z,101279.66
2018-04-14T09:15:33.546Z,101274.52
2018-04-14T09:18:02.702Z,101281.25
2018-04-14T09:20:31.149Z,101281.86
2018-04-14T09:22:59.535Z,101284.81
2018-04-14T09:25:28.037Z,101281.94
2018-04-14T09:27:56.431Z,101289.10
2018-04-14T09:30:24.845Z,101276.86
2018-04-14T09:32:53.253Z,101271.91
2018-04-14T09:35:22.428Z,101280.67
2018-04-14T09:37:50.878Z,101277.84
2018-04-14T09:40:19.293Z,101282.83
2018-04-14T09:42:47.718Z,101280.80
2018-04-14T09:45:16.098Z,101273.47
2018-04-14T09:47:44.511Z,101278.42
2018-04-14T09:50:12.938Z,101276.81
2018-04-14T09:52:41.443Z,101275.84
2018-04-14T09:55:10.649Z,101272.67
2018-04-14T09:57:39.865Z,101275.83
2018-04-14T10:00:08.302Z,101264.67
2018-04-14T10:02:42.237Z,101272.08
2018-04-14T10:05:11.519Z,101266.30
2018-04-14T10:07:39.917Z,101273.55
2018-04-14T10:10:09.088Z,101268.57
2018-04-14T10:12:37.478Z,101264.94
2018-04-14T10:15:05.914Z,101267.59
2018-04-14T10:17:34.319Z,101262.30
2018-04-14T10:20:02.691Z,101263.85
2018-04-14T10:22:31.102Z,101263.91
2018-04-14T10:24:59.545Z,101257.06
2018-04-14T10:27:27.969Z,101260.87
2018-04-14T10:29:56.385Z,101261.00
2018-04-14T10:32:24.796Z,101257.27
2018-04-14T10:34:53.169Z,101256.17
2018-04-14T10:37:21.696Z,101254.50
2018-04-14T10:39:50.138Z,101244.98
2018-04-14T10:42:18.534Z,101247.51
2018-04-14T10:44:46.913Z,101248.97
2018-04-14T10:47:15.317Z,101249.55
2018-04-14T10:49:43.728Z,101249.04
2018-04-14T10:52:12.905Z,101250.51
2018-04-14T10:54:41.322Z,101252.27
2018-04-14T10:57:09.866Z,101243.95
2018-04-14T10:59:38.268Z,101246.86
2018-04-14T11:02:06.671Z,101243.05
2018-04-14T11:04:35.073Z,101241.92
2018-04-14T11:07:03.457Z,101238.55
2018-04-14T11:09:32.663Z,101242.03
2018-04-14T11:12:02.034Z,101242.98
2018-04-14T11:14:31.261Z,101240.75
2018-04-14T11:16:59.677Z,101240.89
2018-04-14T11:19:28.101Z,101236.95
2018-04-14T11:21:56.517Z,101239.73
2018-04-14T11:24:24.899Z,101239.89
2018-04-14T11:26:53.317Z,101230.52
2018-04-14T11:29:21.707Z,101238.53
2018-04-14T11:31:50.112Z,101241.27
2018-04-14T11:34:18.522Z,101231.94
2018-04-14T11:36:46.951Z,101229.78
2018-04-14T11:39:15.342Z,101234.48
2018-04-14T11:41:43.773Z,101227.61
2018-04-14T11:44:12.159Z,101237.66
2018-04-14T11:46:40.569Z,101232.70
2018-04-14T11:49:09.755Z,101229.87
2018-04-14T11:51:38.202Z,101229.86
2018-04-14T11:54:06.634Z,101231.69
2018-04-14T11:56:35.808Z,101231.97
2018-04-14T11:59:04.208Z,101239.16
2018-04-14T12:01:32.629Z,101243.08
2018-04-14T12:04:01.015Z,101252.48
2018-04-14T12:06:29.454Z,101248.11
2018-04-14T12:08:57.838Z,101244.84
2018-04-14T12:11:27.774Z,101247.41
2018-04-14T12:13:56.925Z,101249.45
2018-04-14T12:16:25.335Z,101237.18
2018-04-14T12:18:53.729Z,101247.55
2018-04-14T12:21:22.106Z,101246.14
2018-04-14T12:23:50.501Z,101241.37
2018-04-14T12:26:19.658Z,101240.50
2018-04-14T12:28:48.103Z,101241.77
2018-04-14T12:31:17.301Z,101237.45
2018-04-14T12:33:46.456Z,101245.53
2018-04-14T12:36:14.896Z,101239.22
2018-04-14T12:38:43.290Z,101238.78
2018-04-14T12:41:11.698Z,101237.08
2018-04-14T12:43:40.078Z,101230.31
2018-04-14T12:46:08.517Z,101227.19
2018-04-14T12:48:37.670Z,101235.96
2018-04-14T12:51:06.066Z,101233.53
2018-04-14T12:53:34.467Z,101236.23
2018-04-14T12:56:02.869Z,101232.08
2018-04-14T12:58:32.024Z,101233.29
2018-04-14T13:01:00.417Z,101221.26
2018-04-14T13:03:28.838Z,101225.80
2018-04-14T13:05:58.056Z,101229.16
2018-04-14T13:08:26.462Z,101226.40
2018-04-14T13:10:54.862Z,101225.48
2018-04-14T13:13:23.418Z,101226.31
2018-04-14T13:15:51.813Z,101220.02
2018-04-14T13:18:20.213Z,101218.45
2018-04-14T13:20:48.611Z,101222.64
2018-04-14T13:23:17.006Z,101226.93
2018-04-14T13:25:45.397Z,101225.96
2018-04-14T13:28:14.567Z,101221.46
2018-04-14T13:30:42.954Z,101225.41
2018-04-14T13:33:11.399Z,101222.31
2018-04-14T13:35:39.843Z,101214.06
2018-04-14T13:38:08.238Z,101216.31
2018-04-14T13:40:37.413Z,101209.02
2018-04-14T13:43:05.933Z,101207.28
2018-04-14T13:45:35.178Z,101210.76
2018-04-14T13:48:03.625Z,101216.14
2018-04-14T13:50:32.797Z,101212.52
2018-04-14T13:53:01.211Z,101203.98
2018-04-14T13:55:30.389Z,101199.37
2018-04-14T13:57:59.572Z,101204.02
2018-04-14T14:00:27.978Z,101195.14
2018-04-14T14:02:57.117Z,101192.38
2018-04-14T14:05:25.512Z,101191.27
2018-04-14T14:07:53.945Z,101185.89
2018-04-14T14:10:23.146Z,101190.97
2018-04-14T14:12:52.322Z,101193.23
2018-04-14T14:15:20.733Z,101183.36
2018-04-14T14:17:49.285Z,101189.05
2018-04-14T14:20:17.674Z,101175.92
2018-04-14T14:22:46.074Z,101176.94
2018-04-14T14:25:14.500Z,101173.08
2018-04-14T14:27:42.942Z,101169.27
2018-04-14T14:30:11.544Z,101168.38
2018-04-14T14:32:40.729Z,101166.25
2018-04-14T14:35:09.109Z,101161.70
2018-04-14T14:37:37.506Z,101156.34
2018-04-14T14:40:05.904Z,101158.55
2018-04-14T14:42:35.326Z,101155.19
2018-04-14T14:45:03.666Z,101149.80
2018-04-14T14:47:38.422Z,101154.84
2018-04-14T14:50:13.153Z,101152.98
2018-04-14T14:52:42.364Z,101159.35
2018-04-14T14:55:11.550Z,101159.56
2018-04-14T14:57:40.008Z,101147.09
2018-04-14T15:00:08.409Z,101147.23
2018-04-14T15:05:03.176Z,101143.77
2018-04-14T15:07:31.536Z,101137.78
2018-04-14T15:10:00.730Z,101140.20
2018-04-14T15:12:29.945Z,101136.98
2018-04-14T15:14:58.437Z,101134.96
2018-04-14T15:17:26.848Z,101134.38
2018-04-14T15:19:55.224Z,101133.38
2018-04-14T15:22:23.714Z,101128.19
2018-04-14T15:24:52.107Z,101128.38
2018-04-14T15:27:20.518Z,101130.09
2018-04-14T15:29:48.903Z,101134.12
2018-04-14T15:32:18.271Z,101133.92
2018-04-14T15:34:46.675Z,101140.52
2018-04-14T15:37:15.067Z,101135.06
2018-04-14T15:39:44.348Z,101137.77
2018-04-14T15:42:12.749Z,101135.73
2018-04-14T15:44:41.334Z,101134.69
2018-04-14T15:47:09.736Z,101122.05
2018-04-14T15:49:38.955Z,101123.61
2018-04-14T15:52:08.125Z,101123.55
2018-04-14T15:54:36.526Z,101128.14
2018-04-14T15:57:05.665Z,101123.12
2018-04-14T15:59:34.126Z,101122.61
2018-04-14T16:02:02.527Z,101126.62
2018-04-14T16:04:30.913Z,101125.80
2018-04-14T16:06:59.319Z,101134.22
2018-04-14T16:09:27.708Z,101125.61
2018-04-14T16:11:56.137Z,101128.02
2018-04-14T16:14:25.294Z,101126.70
2018-04-14T16:16:53.734Z,101130.66
2018-04-14T16:19:22.186Z,101125.43
2018-04-14T16:21:50.604Z,101127.95
2018-04-14T16:24:18.998Z,101130.38
2018-04-14T16:26:47.376Z,101124.13
2018-04-14T16:29:15.857Z,101127.17
2018-04-14T16:31:44.453Z,101126.73
2018-04-14T16:34:12.834Z,101120.92
2018-04-14T16:36:41.254Z,101125.95
2018-04-14T16:39:09.667Z,101129.88
2018-04-14T16:41:38.857Z,101128.59
2018-04-14T16:44:07.241Z,101127.98
2018-04-14T16:46:35.875Z,101126.64
2018-04-14T16:49:04.256Z,101132.81
2018-04-14T16:51:32.621Z,101138.59
2018-04-14T16:54:01.786Z,101133.52
2018-04-14T16:56:30.179Z,101129.66
2018-04-14T16:58:58.553Z,101130.42
2018-04-14T17:01:26.924Z,101126.34
2018-04-14T17:03:55.323Z,101129.95
2018-04-14T17:06:23.839Z,101129.69
2018-04-14T17:08:52.994Z,101129.86
2018-04-14T17:11:21.502Z,101126.02
2018-04-14T17:13:51.398Z,101132.53
2018-04-14T17:16:19.774Z,101124.80
2018-04-14T17:18:48.227Z,101130.98
2018-04-14T17:21:16.567Z,101127.95
2018-04-14T17:23:44.974Z,101131.48
2018-04-14T17:26:14.128Z,101122.40
2018-04-14T17:28:42.491Z,101125.58
2018-04-14T17:31:10.910Z,101129.67
2018-04-14T17:33:39.562Z,101121.05
2018-04-14T17:36:07.981Z,101123.80
2018-04-14T17:38:36.370Z,101127.26
2018-04-14T17:41:04.789Z,101128.22
2018-04-14T17:43:33.945Z,101125.13
2018-04-14T17:46:02.390Z,101131.78
2018-04-14T17:48:30.774Z,101135.70
2018-04-14T17:50:59.233Z,101127.03
2018-04-14T17:53:28.438Z,101132.86
2018-04-14T17:55:57.593Z,101128.99
2018-04-14T17:58:25.974Z,101130.38
2018-04-14T18:00:54.408Z,101128.22
2018-04-14T18:03:23.555Z,101130.01
2018-04-14T18:05:51.969Z,101125.24
2018-04-14T18:08:20.378Z,101123.13
2018-04-14T18:10:49.561Z,101123.60
2018-04-14T18:13:18.801Z,101121.90
2018-04-14T18:15:47.251Z,101117.55
2018-04-14T18:18:16.422Z,101121.45
2018-04-14T18:20:44.829Z,101121.48
2018-04-14T18:23:13.259Z,101121.11
2018-04-14T18:25:41.669Z,101124.16
2018-04-14T18:28:10.070Z,101116.31
2018-04-14T18:30:38.463Z,101122.45
2018-04-14T18:33:06.907Z,101117.19
2018-04-14T18:35:35.311Z,101117.60
2018-04-14T18:38:03.726Z,101123.73
2018-04-14T18:40:32.929Z,101135.11
2018-04-14T18:43:02.095Z,101133.39
2018-04-14T18:45:30.507Z,101139.48
2018-04-14T18:47:59.687Z,101142.12
2018-04-14T18:50:28.132Z,101144.29
2018-04-14T18:52:56.522Z,101139.48
2018-04-14T18:55:24.934Z,101137.30
2018-04-14T18:57:53.333Z,101142.13
2018-04-14T19:00:21.729Z,101142.13
2018-04-14T19:02:50.916Z,101146.43
2018-04-14T19:05:19.314Z,101148.16
2018-04-14T19:07:48.453Z,101141.16
2018-04-14T19:10:16.867Z,101146.84
2018-04-14T19:12:45.273Z,101153.81
2018-04-14T19:15:13.678Z,101150.28
2018-04-14T19:17:42.839Z,101149.84
2018-04-14T19:20:11.237Z,101148.08
2018-04-14T19:22:39.633Z,101153.73
2018-04-14T19:25:08.772Z,101152.84
2018-04-14T19:27:38.105Z,101153.28
2018-04-14T19:30:06.512Z,101149.36
2018-04-14T19:32:35.689Z,101155.88
2018-04-14T19:35:04.096Z,101160.67
2018-04-14T19:37:33.999Z,101153.27
2018-04-14T19:40:02.398Z,101144.53
2018-04-14T19:42:32.298Z,101147.14
2018-04-14T19:45:00.799Z,101147.52
2018-04-14T19:47:30.011Z,101146.63
2018-04-14T19:49:59.408Z,101142.67
2018-04-14T19:52:29.121Z,101137.34
2018-04-14T19:54:57.517Z,101137.20
2018-04-14T19:57:27.471Z,101133.62
2018-04-14T19:59:55.891Z,101143.52
2018-04-14T20:02:24.283Z,101143.41
2018-04-14T20:04:52.797Z,101141.14
2018-04-14T20:07:21.199Z,101136.69
2018-04-14T20:09:49.794Z,101140.50
2018-04-14T20:12:18.264Z,101143.00
2018-04-14T20:14:47.426Z,101148.58
2018-04-14T20:17:16.630Z,101148.98
2018-04-14T20:19:45.072Z,101151.11
2018-04-14T20:22:13.422Z,101145.81
2018-04-14T20:24:42.653Z,101142.26
2018-04-14T20:27:11.107Z,101140.05
2018-04-14T20:29:40.288Z,101141.70
2018-04-14T20:32:08.728Z,101142.05
2018-04-14T20:34:37.149Z,101132.02
2018-04-14T20:37:06.627Z,101132.02
2018-04-14T20:39:34.995Z,101127.58
2018-04-14T20:42:04.122Z,101126.71
2018-04-14T20:44:32.526Z,101127.53
2018-04-14T20:47:00.967Z,101120.55
2018-04-14T20:49:29.364Z,101118.80
2018-04-14T20:51:57.758Z,101116.16
2018-04-14T20:54:26.204Z,101119.23
2018-04-14T20:56:54.627Z,101111.86
2018-04-14T20:59:23.024Z,101114.11
2018-04-14T21:01:52.218Z,101109.42
2018-04-14T21:04:21.394Z,101111.67
2018-04-14T21:06:49.830Z,101108.28
2018-04-14T21:09:18.986Z,101111.91
2018-04-14T21:11:48.289Z,101108.50
2018-04-14T21:14:16.728Z,101106.40
2018-04-14T21:16:45.981Z,101107.77
2018-04-14T21:19:14.390Z,101109.15
2018-04-14T21:21:42.835Z,101104.47
2018-04-14T21:24:11.217Z,101103.69
2018-04-14T21:26:39.618Z,101105.52
2018-04-14T21:29:08.046Z,101102.06
2018-04-14T21:31:37.230Z,101099.05
2018-04-14T21:34:06.394Z,101099.08
2018-04-14T21:36:34.801Z,101094.29
2018-04-14T21:39:03.241Z,101090.38
2018-04-14T21:41:31.708Z,101093.41
2018-04-14T21:44:00.871Z,101096.46
2018-04-14T21:46:29.306Z,101092.14
2018-04-14T21:48:57.707Z,101086.91
2018-04-14T21:51:26.111Z,101084.73
2018-04-14T21:53:54.586Z,101086.04
2018-04-14T21:56:23.790Z,101085.61
2018-04-14T21:58:52.379Z,101084.73
2018-04-14T22:01:20.836Z,101083.44
2018-04-14T22:03:49.273Z,101083.00
2018-04-14T22:06:17.674Z,101082.97
2018-04-14T22:08:46.873Z,101079.92
2018-04-14T22:11:16.013Z,101089.06
2018-04-14T22:13:44.409Z,101082.53
2018-04-14T22:16:13.013Z,101080.36
2018-04-14T22:18:41.424Z,101075.54
2018-04-14T22:21:10.589Z,101075.57
2018-04-14T22:23:39.023Z,101074.70
2018-04-14T22:26:08.185Z,101077.31
2018-04-14T22:28:36.587Z,101072.96
2018-04-14T22:31:04.988Z,101073.52
2018-04-14T22:33:34.331Z,101078.34
2018-04-14T22:36:02.710Z,101079.73
2018-04-14T22:38:31.187Z,101085.84
2018-04-14T22:40:59.642Z,101102.53
2018-04-14T22:43:28.816Z,101106.12
2018-04-14T22:45:57.220Z,101111.85
2018-04-14T22:48:26.367Z,101116.66
2018-04-14T22:50:54.761Z,101123.69
2018-04-14T22:53:23.180Z,101112.30
2018-04-14T22:55:52.357Z,101112.33
2018-04-14T22:58:20.760Z,101119.75
2018-04-14T23:00:50.670Z,101121.09
2018-04-14T23:03:19.089Z,101122.83
2018-04-14T23:05:48.320Z,101118.48
2018-04-14T23:08:16.741Z,101126.33
2018-04-14T23:10:45.137Z,101123.72
2018-04-14T23:13:14.292Z,101133.75
2018-04-14T23:15:42.699Z,101134.59
2018-04-14T23:18:11.861Z,101139.43
2018-04-14T23:20:40.241Z,101133.72
2018-04-14T23:23:08.631Z,101140.62
2018-04-14T23:25:37.012Z,101135.39
2018-04-14T23:28:05.417Z,101136.22
2018-04-14T23:30:34.609Z,101137.91
2018-04-14T23:33:02.996Z,101139.56
2018-04-14T23:35:31.395Z,101141.17
2018-04-14T23:38:00.006Z,101137.16
2018-04-14T23:40:28.399Z,101135.39
2018-04-14T23:42:57.537Z,101128.97
2018-04-14T23:45:25.942Z,101125.88
2018-04-14T23:47:55.085Z,101132.09
2018-04-14T23:50:24.270Z,101126.69
2018-04-14T23:52:52.663Z,101126.15
2018-04-14T23:55:21.814Z,101131.77
2018-04-14T23:57:50.208Z,101129.27
